VOMM Airport Information

Runway Information
Runway 07 Length 12001 ft width 148 ft
Elevation 40 ft Threshold 0 ft Heading 69
Runway 25 Length 12001 ft Width 148 ft
Elevation 52 ft Threshold 0 ft Heading 249
Runway 12 Length 6708 ft width 148 ft
Elevation 30 ft Threshold 0 ft Heading 118
Runway 30 Length 6708 ft Width 148 ft
Elevation 43 ft Threshold 787 ft Heading 298
Airport Frequencies
Type ACC Name CHENNAI CN Frequency 118.9 MHZ
Type APP Name APP Frequency 127.9 MHZ
Type ATIS Name ATIS Frequency 127.45 MHZ
Type GCA Name SCHENNAI R Frequency 125.7 MHZ
Type GND Name GND Frequency 121.9 MHZ
Type TWR Name TWR Frequency 118.1 MHZ
Airport Navaids
Type NDB Name Chennai Frequency 228 KHZ
Type VOR-DME Name Chennai Frequency 112500 KHZ
Airport Weather Information & NOTAM
ADDS - METARS form results

(0947 UTC 26 May 2018)
 
METAR text: VOMM 260930Z 10011KT 8000 SCT020 SCT100 34/25 Q1002 NOSIG
Conditions at: VOMM (MADRAS/CHENNAI , IN) observed 0930 UTC 26 May 2018
Temperature: 34.0°C (93°F)
Dewpoint: 25.0°C (77°F) [RH = 60%]
Pressure (altimeter): 29.59 inches Hg (1002.0 mb)
Winds: from the E (100 degrees) at 13 MPH (11 knots; 5.7 m/s)
Visibility: 5 miles (8 km)
Ceiling: at least 12,000 feet AGL
Clouds: scattered clouds at 2000 feet AGL
scattered clouds at 10000 feet AGL
Weather: no significant weather observed at this time

METAR text: VOMM 260900Z 10011KT 8000 SCT020 SCT100 34/25 Q1003 NOSIG
Conditions at: VOMM (MADRAS/CHENNAI , IN) observed 0900 UTC 26 May 2018
Temperature: 34.0°C (93°F)
Dewpoint: 25.0°C (77°F) [RH = 60%]
Pressure (altimeter): 29.62 inches Hg (1003.0 mb)
Winds: from the E (100 degrees) at 13 MPH (11 knots; 5.7 m/s)
Visibility: 5 miles (8 km)
Ceiling: at least 12,000 feet AGL
Clouds: scattered clouds at 2000 feet AGL
scattered clouds at 10000 feet AGL
Weather: no significant weather observed at this time